Time;durP1;ratioP1;P1;durP2;ratioP2;P2;SDS_P1;SDS_P2;PMS_P1;PMS_P2;Temp;Humidity;BMP_temperature;BMP_pressure;BME280_temperature;BME280_humidity;BME280_pressure;Samples;Min_cycle;Max_cycle;Signal;HPM_P1;HPM_P2
2023/03/13 00:01:22;;;;;;;6.85;1.42;;;7.30;99.90;;;;;;4999932;28;20222;-67
2023/03/13 00:03:51;;;;;;;3.65;1.77;;;7.30;99.90;;;;;;4985062;28;20228;-67
2023/03/13 00:06:21;;;;;;;3.72;1.55;;;7.30;99.90;;;;;;4986032;28;20209;-68
2023/03/13 00:08:49;;;;;;;3.50;1.15;;;7.30;99.90;;;;;;4988354;28;20308;-68
2023/03/13 00:11:18;;;;;;;3.70;2.10;;;7.30;99.90;;;;;;4968968;28;20250;-67
2023/03/13 00:13:46;;;;;;;3.05;1.50;;;7.30;99.90;;;;;;4988225;28;20398;-68
2023/03/13 00:16:16;;;;;;;3.03;1.48;;;7.30;99.90;;;;;;4972190;28;20214;-67
2023/03/13 00:18:46;;;;;;;10.73;2.08;;;7.30;99.90;;;;;;4973625;28;20609;-69
2023/03/13 00:21:16;;;;;;;5.43;2.38;;;7.30;99.90;;;;;;4969268;28;20792;-68
2023/03/13 00:23:46;;;;;;;3.83;1.55;;;7.30;99.90;;;;;;4984966;28;20259;-69
2023/03/13 00:26:17;;;;;;;4.00;1.65;;;7.30;99.90;;;;;;4985447;28;20236;-67
2023/03/13 00:28:46;;;;;;;2.33;1.33;;;7.30;99.90;;;;;;4992757;28;20233;-67
2023/03/13 00:31:16;;;;;;;5.20;2.08;;;7.30;99.90;;;;;;4987065;28;20229;-68
2023/03/13 00:33:47;;;;;;;6.18;1.83;;;7.30;99.90;;;;;;4996019;28;20563;-68
2023/03/13 00:36:18;;;;;;;4.65;1.38;;;7.30;99.90;;;;;;4992084;28;20206;-67
2023/03/13 00:38:48;;;;;;;5.68;1.55;;;7.30;99.90;;;;;;4992877;28;20229;-68
2023/03/13 00:41:18;;;;;;;3.55;1.30;;;7.30;99.90;;;;;;4982388;28;20256;-69
2023/03/13 00:43:49;;;;;;;3.22;1.50;;;7.30;99.90;;;;;;4995881;28;20228;-68
2023/03/13 00:46:19;;;;;;;3.45;1.45;;;7.40;99.90;;;;;;4999573;28;20210;-69
2023/03/13 00:48:48;;;;;;;3.22;1.50;;;7.30;99.90;;;;;;5000974;28;20217;-69
2023/03/13 00:51:18;;;;;;;2.90;1.90;;;7.40;99.90;;;;;;4988337;28;20233;-68
2023/03/13 00:53:50;;;;;;;3.00;1.30;;;7.30;99.90;;;;;;5003186;28;20301;-68
2023/03/13 00:56:20;;;;;;;1.73;1.60;;;7.40;99.90;;;;;;4991223;28;20206;-67
2023/03/13 00:58:49;;;;;;;3.00;1.55;;;7.40;99.90;;;;;;4984213;28;20215;-67
2023/03/13 01:01:20;;;;;;;4.78;1.42;;;7.30;99.90;;;;;;4987562;28;20210;-68
2023/03/13 01:03:50;;;;;;;3.40;1.83;;;7.30;99.90;;;;;;4987765;28;20229;-68
2023/03/13 01:06:21;;;;;;;3.00;1.90;;;7.40;99.90;;;;;;4995513;28;20201;-68
2023/03/13 01:08:50;;;;;;;2.67;1.67;;;7.40;99.90;;;;;;4998835;28;20412;-68
2023/03/13 01:11:22;;;;;;;2.35;1.33;;;7.40;99.90;;;;;;4980574;28;20198;-68
2023/03/13 01:13:55;;;;;;;3.60;1.40;;;7.40;99.90;;;;;;4992697;28;20196;-67
2023/03/13 01:16:28;;;;;;;4.40;1.67;;;7.40;99.90;;;;;;4992284;28;20208;-69
2023/03/13 01:18:59;;;;;;;4.28;1.50;;;7.40;99.90;;;;;;5000344;28;20898;-70
2023/03/13 01:21:29;;;;;;;2.65;1.33;;;7.40;99.90;;;;;;4987399;28;20237;-68
2023/03/13 01:23:59;;;;;;;3.00;1.40;;;7.40;99.90;;;;;;4977356;28;20698;-68
2023/03/13 01:26:27;;;;;;;2.05;1.40;;;7.40;99.90;;;;;;4992214;28;20206;-67
2023/03/13 01:28:56;;;;;;;2.50;1.60;;;7.40;99.90;;;;;;4982576;28;20729;-67
2023/03/13 01:31:27;;;;;;;4.00;1.20;;;7.40;99.90;;;;;;4969816;28;20198;-69
2023/03/13 01:33:57;;;;;;;3.95;1.45;;;7.40;99.90;;;;;;4992078;28;20233;-67
2023/03/13 01:36:27;;;;;;;3.58;1.45;;;7.40;99.90;;;;;;4983970;28;20230;-67
2023/03/13 01:38:57;;;;;;;3.80;1.37;;;7.40;99.90;;;;;;4988344;28;20223;-68
2023/03/13 01:41:30;;;;;;;2.17;1.50;;;7.40;99.90;;;;;;4979678;28;20671;-68
2023/03/13 01:43:59;;;;;;;3.50;1.50;;;7.40;99.90;;;;;;4979066;28;20227;-68
2023/03/13 01:46:33;;;;;;;3.45;1.85;;;7.40;99.90;;;;;;4984411;28;20599;-67
2023/03/13 01:49:13;;;;;;;3.00;2.20;;;7.40;99.90;;;;;;5001528;28;20230;-68
2023/03/13 01:52:01;;;;;;;3.53;1.98;;;7.40;99.90;;;;;;4985912;28;20230;-67
2023/03/13 01:54:34;;;;;;;2.60;1.70;;;7.40;99.90;;;;;;4982519;28;20236;-67
2023/03/13 01:57:07;;;;;;;2.92;1.17;;;7.40;99.90;;;;;;4984224;28;20370;-70
2023/03/13 01:59:42;;;;;;;2.00;1.60;;;7.40;99.90;;;;;;4997749;28;20224;-67
2023/03/13 02:02:12;;;;;;;3.38;1.70;;;7.40;99.90;;;;;;4986333;28;20224;-69
2023/03/13 02:04:45;;;;;;;2.63;1.38;;;7.40;99.90;;;;;;4968905;28;20325;-68
2023/03/13 02:07:19;;;;;;;2.42;1.00;;;7.40;99.90;;;;;;4984768;28;20217;-69
2023/03/13 02:09:51;;;;;;;3.90;1.67;;;7.40;99.90;;;;;;4969620;28;20229;-66
2023/03/13 02:12:29;;;;;;;1.30;1.20;;;7.40;99.90;;;;;;4991451;28;20567;-68
2023/03/13 02:15:00;;;;;;;3.40;1.10;;;7.40;99.90;;;;;;4986392;28;20235;-67
2023/03/13 02:17:30;;;;;;;1.92;1.38;;;7.40;99.90;;;;;;4994788;28;20601;-68
2023/03/13 02:19:59;;;;;;;3.63;1.30;;;7.40;99.90;;;;;;4987119;28;20223;-69
2023/03/13 02:22:32;;;;;;;2.03;1.10;;;7.40;99.90;;;;;;4987699;28;20224;-67
2023/03/13 02:25:06;;;;;;;2.00;0.90;;;7.40;99.90;;;;;;4978081;28;20262;-67
2023/03/13 02:27:36;;;;;;;1.42;0.88;;;7.40;99.90;;;;;;4981415;28;20216;-67
2023/03/13 02:30:07;;;;;;;1.83;1.27;;;7.40;99.90;;;;;;4979109;28;20607;-67
2023/03/13 02:32:36;;;;;;;1.70;1.20;;;7.40;99.90;;;;;;4991395;28;20227;-67
2023/03/13 02:35:09;;;;;;;1.85;1.20;;;7.40;99.90;;;;;;4982319;28;20653;-68
2023/03/13 02:37:39;;;;;;;2.33;1.15;;;7.50;99.90;;;;;;4972177;28;20220;-67
2023/03/13 02:40:15;;;;;;;2.27;1.10;;;7.50;99.90;;;;;;5000880;28;20232;-70
2023/03/13 02:42:47;;;;;;;1.80;1.10;;;7.50;99.90;;;;;;4994558;28;20579;-68
2023/03/13 02:45:16;;;;;;;2.75;1.13;;;7.50;99.90;;;;;;4977489;28;20481;-67
2023/03/13 02:47:45;;;;;;;2.75;1.60;;;7.50;99.90;;;;;;4987801;28;20220;-67
2023/03/13 02:50:14;;;;;;;1.75;1.08;;;7.40;99.90;;;;;;4977010;28;20686;-69
2023/03/13 02:52:45;;;;;;;1.27;0.90;;;7.40;99.90;;;;;;4985499;28;20448;-66
2023/03/13 02:55:17;;;;;;;2.53;1.10;;;7.50;99.90;;;;;;4974318;28;20302;-69
2023/03/13 02:57:47;;;;;;;2.20;1.05;;;7.50;99.90;;;;;;4998391;28;20246;-69
2023/03/13 03:00:17;;;;;;;1.60;1.15;;;7.50;99.90;;;;;;4995207;28;20223;-69
2023/03/13 03:02:45;;;;;;;1.42;1.00;;;7.50;99.90;;;;;;4996006;28;20219;-67
2023/03/13 03:05:14;;;;;;;5.07;1.30;;;7.50;99.90;;;;;;4996760;28;20218;-68
2023/03/13 03:07:43;;;;;;;3.33;1.30;;;7.50;99.90;;;;;;4993462;28;20573;-68
2023/03/13 03:10:12;;;;;;;1.60;1.00;;;7.50;99.90;;;;;;4994934;28;20287;-68
2023/03/13 03:12:41;;;;;;;1.38;0.90;;;7.50;99.90;;;;;;4987709;28;20208;-68
2023/03/13 03:15:12;;;;;;;1.30;0.85;;;7.50;99.90;;;;;;4979897;28;20307;-68
2023/03/13 03:17:45;;;;;;;1.20;0.80;;;7.50;99.90;;;;;;4994718;28;20227;-69
2023/03/13 03:20:13;;;;;;;0.98;0.90;;;7.50;99.90;;;;;;4992147;28;20232;-68
2023/03/13 03:22:43;;;;;;;2.38;0.93;;;7.50;99.90;;;;;;5002530;28;20227;-66
2023/03/13 03:25:12;;;;;;;2.47;1.52;;;7.50;99.90;;;;;;4985229;28;20224;-66
2023/03/13 03:27:41;;;;;;;1.25;0.90;;;7.50;99.90;;;;;;4989318;28;20314;-67
2023/03/13 03:30:12;;;;;;;4.17;0.97;;;7.50;99.90;;;;;;4995061;28;20323;-67
2023/03/13 03:32:41;;;;;;;1.20;1.05;;;7.50;99.90;;;;;;5000858;28;20640;-67
2023/03/13 03:35:09;;;;;;;3.43;0.90;;;7.50;99.90;;;;;;4967636;28;20742;-68
2023/03/13 03:37:40;;;;;;;1.10;0.70;;;7.50;99.90;;;;;;4994126;28;20452;-66
2023/03/13 03:40:10;;;;;;;2.00;0.70;;;7.50;99.90;;;;;;4981848;28;20699;-68
2023/03/13 03:42:39;;;;;;;0.87;0.63;;;7.50;99.90;;;;;;4988990;28;20561;-68
2023/03/13 03:45:09;;;;;;;1.08;0.98;;;7.50;99.90;;;;;;5006028;28;20467;-67
2023/03/13 03:47:39;;;;;;;1.27;1.15;;;7.50;99.90;;;;;;4998515;28;20247;-68
2023/03/13 03:50:09;;;;;;;1.98;1.00;;;7.50;99.90;;;;;;4993539;28;20223;-69
2023/03/13 03:52:47;;;;;;;1.70;1.20;;;7.50;99.90;;;;;;4995880;28;20197;-68
2023/03/13 03:55:15;;;;;;;0.90;0.50;;;7.50;99.90;;;;;;4975794;28;20468;-66
2023/03/13 03:57:44;;;;;;;2.80;0.95;;;7.50;99.90;;;;;;4990625;28;20455;-67
2023/03/13 04:00:22;;;;;;;0.90;0.80;;;7.50;99.90;;;;;;5001834;28;20319;-68
2023/03/13 04:02:55;;;;;;;1.67;0.90;;;7.50;99.90;;;;;;4973440;28;20459;-66
2023/03/13 04:05:25;;;;;;;1.10;0.60;;;7.50;99.90;;;;;;4977875;28;20447;-69
2023/03/13 04:07:53;;;;;;;1.03;0.83;;;7.50;99.90;;;;;;5001180;28;21005;-66
2023/03/13 04:10:22;;;;;;;1.42;0.98;;;7.50;99.90;;;;;;4996971;28;20552;-67
2023/03/13 04:12:51;;;;;;;0.90;0.70;;;7.60;99.90;;;;;;4997648;28;20275;-67
2023/03/13 04:15:19;;;;;;;1.40;0.85;;;7.50;99.90;;;;;;4996667;28;20303;-67
2023/03/13 04:17:48;;;;;;;0.93;0.60;;;7.60;99.90;;;;;;5002330;28;20215;-68
2023/03/13 04:20:20;;;;;;;1.42;0.80;;;7.60;99.90;;;;;;4997396;28;20228;-69
2023/03/13 04:22:49;;;;;;;1.15;0.90;;;7.60;99.90;;;;;;4994045;28;20295;-69
2023/03/13 04:25:18;;;;;;;0.70;0.60;;;7.60;99.90;;;;;;4997392;28;20279;-67
2023/03/13 04:27:49;;;;;;;1.10;0.82;;;7.60;99.90;;;;;;4991239;28;20219;-67
2023/03/13 04:30:20;;;;;;;2.72;0.85;;;7.50;99.90;;;;;;4999642;28;20226;-67
2023/03/13 04:33:04;;;;;;;2.25;1.40;;;7.60;99.90;;;;;;4999400;28;20200;-69
2023/03/13 04:35:51;;;;;;;0.87;0.70;;;7.60;99.90;;;;;;4988637;28;20211;-67
2023/03/13 04:38:38;;;;;;;1.15;0.70;;;7.60;99.90;;;;;;4979121;28;20472;-68
2023/03/13 04:41:30;;;;;;;0.80;0.50;;;7.60;99.90;;;;;;5004623;28;20234;-68
2023/03/13 04:44:33;;;;;;;1.13;0.60;;;7.60;99.90;;;;;;4958889;28;20503;-66
2023/03/13 04:47:37;;;;;;;1.02;0.68;;;7.60;99.90;;;;;;4982952;28;20232;-66
2023/03/13 04:50:23;;;;;;;1.90;0.70;;;7.60;99.90;;;;;;4986078;28;20630;-69
2023/03/13 04:53:22;;;;;;;1.00;0.70;;;7.60;99.90;;;;;;4979695;28;20547;-67
2023/03/13 04:56:04;;;;;;;1.00;0.80;;;7.60;99.90;;;;;;4996298;28;20561;-66
2023/03/13 04:58:51;;;;;;;1.13;0.80;;;7.60;99.90;;;;;;4982471;28;20460;-67
2023/03/13 05:01:38;;;;;;;1.37;0.80;;;7.60;99.90;;;;;;4970717;28;20590;-68
2023/03/13 05:04:10;;;;;;;1.30;0.67;;;7.60;99.90;;;;;;4982927;28;20511;-68
2023/03/13 05:06:58;;;;;;;2.10;0.70;;;7.60;99.90;;;;;;4980637;28;20463;-68
2023/03/13 05:10:04;;;;;;;0.93;0.65;;;7.60;99.90;;;;;;4957080;28;20523;-67
2023/03/13 05:12:39;;;;;;;0.80;0.68;;;7.60;99.90;;;;;;4985369;28;20199;-67
2023/03/13 05:15:27;;;;;;;0.75;0.57;;;7.60;99.90;;;;;;4982351;28;20233;-69
2023/03/13 05:18:18;;;;;;;1.27;0.60;;;7.60;99.90;;;;;;4970383;28;20228;-67
2023/03/13 05:21:04;;;;;;;1.20;0.70;;;7.60;99.90;;;;;;4995914;28;20545;-68
2023/03/13 05:23:52;;;;;;;1.20;0.82;;;7.60;99.90;;;;;;4995739;28;20480;-68
2023/03/13 05:26:47;;;;;;;1.87;0.73;;;7.60;99.90;;;;;;5003083;28;20216;-67
2023/03/13 05:29:30;;;;;;;1.27;0.63;;;7.60;99.90;;;;;;4986766;28;20976;-68
2023/03/13 05:32:10;;;;;;;1.63;0.70;;;7.60;99.90;;;;;;4996016;28;20234;-67
2023/03/13 05:34:53;;;;;;;3.03;0.93;;;7.70;99.90;;;;;;4987502;28;20465;-68
2023/03/13 05:37:45;;;;;;;0.77;0.77;;;7.60;99.90;;;;;;4981504;28;20227;-68
2023/03/13 05:40:26;;;;;;;0.77;0.70;;;7.60;99.90;;;;;;5002857;28;20567;-67
2023/03/13 05:43:16;;;;;;;0.70;0.60;;;7.60;99.90;;;;;;4990963;28;21053;-66
2023/03/13 05:46:00;;;;;;;1.33;0.45;;;7.70;99.90;;;;;;4993150;28;20260;-66
2023/03/13 05:48:52;;;;;;;1.20;0.80;;;7.60;99.90;;;;;;4976140;28;20300;-68
2023/03/13 05:51:47;;;;;;;0.82;0.60;;;7.70;99.90;;;;;;4979057;28;20228;-69
2023/03/13 05:54:28;;;;;;;1.23;0.70;;;7.70;99.90;;;;;;4986565;28;20708;-67
2023/03/13 05:57:19;;;;;;;0.90;0.60;;;7.60;99.90;;;;;;4968274;28;20229;-68
2023/03/13 06:00:20;;;;;;;0.95;0.70;;;7.70;99.90;;;;;;4971115;28;20303;-67
2023/03/13 06:03:14;;;;;;;0.80;0.60;;;7.70;99.90;;;;;;4992176;28;20665;-68
2023/03/13 06:05:45;;;;;;;1.05;0.85;;;7.70;99.90;;;;;;4991448;28;20432;-66
2023/03/13 06:08:31;;;;;;;0.85;0.85;;;7.70;99.90;;;;;;4990200;28;20307;-67
2023/03/13 06:11:01;;;;;;;1.33;0.80;;;7.70;99.90;;;;;;4985929;28;20229;-67
2023/03/13 06:13:30;;;;;;;1.02;0.60;;;7.70;99.90;;;;;;4973879;28;20205;-69
2023/03/13 06:16:05;;;;;;;1.40;0.83;;;7.70;99.90;;;;;;4973646;28;20636;-68
2023/03/13 06:18:41;;;;;;;0.90;0.50;;;7.70;99.90;;;;;;4983295;28;20572;-68
2023/03/13 06:21:09;;;;;;;0.77;0.63;;;7.70;99.90;;;;;;4975645;28;20503;-69
2023/03/13 06:23:41;;;;;;;0.60;0.50;;;7.70;99.90;;;;;;4993219;28;20821;-69
2023/03/13 06:26:10;;;;;;;1.10;0.93;;;7.70;99.90;;;;;;4989771;28;20475;-67
2023/03/13 06:28:39;;;;;;;0.70;0.60;;;7.70;99.90;;;;;;4993731;28;20313;-67
2023/03/13 06:31:10;;;;;;;0.83;0.83;;;7.70;99.90;;;;;;4996102;28;20449;-69
2023/03/13 06:33:39;;;;;;;1.13;0.70;;;7.70;99.90;;;;;;4985348;28;21133;-67
2023/03/13 06:36:08;;;;;;;1.17;0.60;;;7.70;99.90;;;;;;5002856;28;20440;-68
2023/03/13 06:38:37;;;;;;;0.70;0.60;;;7.70;99.90;;;;;;4986207;28;20462;-66
2023/03/13 06:41:07;;;;;;;0.80;0.80;;;7.70;99.90;;;;;;4996210;28;20209;-67
2023/03/13 06:43:39;;;;;;;1.45;0.77;;;7.70;99.90;;;;;;4976654;28;20241;-66
2023/03/13 06:46:16;;;;;;;0.75;0.52;;;7.70;99.90;;;;;;4986449;28;20196;-67
2023/03/13 06:48:45;;;;;;;0.90;0.63;;;7.70;99.90;;;;;;4984842;28;20335;-68
2023/03/13 06:51:15;;;;;;;1.43;0.73;;;7.70;99.90;;;;;;4989209;28;20255;-67
2023/03/13 06:53:43;;;;;;;0.85;0.50;;;7.70;99.90;;;;;;4983577;28;20957;-68
2023/03/13 06:56:12;;;;;;;0.90;0.85;;;7.70;99.90;;;;;;4981287;28;20207;-68
2023/03/13 06:58:41;;;;;;;0.70;0.60;;;7.70;99.90;;;;;;4992994;28;20287;-66
2023/03/13 07:01:13;;;;;;;1.83;1.67;;;7.70;99.90;;;;;;4985271;28;20558;-69
2023/03/13 07:03:42;;;;;;;1.30;0.90;;;7.70;99.90;;;;;;4991101;28;20312;-66
2023/03/13 07:06:12;;;;;;;0.60;0.60;;;7.70;99.90;;;;;;4990238;28;20439;-66
2023/03/13 07:08:42;;;;;;;2.75;1.23;;;7.70;99.90;;;;;;4996560;28;20912;-67
2023/03/13 07:11:12;;;;;;;1.23;0.70;;;7.80;99.90;;;;;;5001598;28;20201;-68
2023/03/13 07:13:41;;;;;;;0.83;0.73;;;7.70;99.90;;;;;;4959396;28;20440;-68
2023/03/13 07:16:13;;;;;;;4.15;1.00;;;7.70;99.90;;;;;;4972347;28;20521;-67
2023/03/13 07:18:43;;;;;;;1.67;0.70;;;7.80;99.90;;;;;;4982478;28;20721;-69
2023/03/13 07:21:12;;;;;;;0.93;0.80;;;7.80;99.90;;;;;;4979437;28;20441;-69
2023/03/13 07:23:42;;;;;;;1.80;0.90;;;7.80;99.90;;;;;;4970741;28;20499;-66
2023/03/13 07:26:13;;;;;;;2.13;0.90;;;7.80;99.90;;;;;;4978321;28;20442;-67
2023/03/13 07:28:42;;;;;;;1.03;0.93;;;7.80;99.90;;;;;;4983372;28;20588;-66
2023/03/13 07:31:14;;;;;;;2.13;1.73;;;7.80;99.90;;;;;;4980144;28;21014;-68
2023/03/13 07:33:43;;;;;;;1.17;0.70;;;7.80;99.90;;;;;;4993303;28;20435;-69
2023/03/13 07:36:13;;;;;;;0.90;0.67;;;7.80;99.90;;;;;;4985599;28;20440;-68
2023/03/13 07:38:43;;;;;;;3.00;0.87;;;7.80;99.90;;;;;;4977088;28;20511;-66
2023/03/13 07:41:13;;;;;;;1.60;1.07;;;7.80;99.90;;;;;;4982105;28;20507;-66
2023/03/13 07:43:42;;;;;;;2.10;0.80;;;7.80;99.90;;;;;;4983360;28;20560;-69
2023/03/13 07:46:14;;;;;;;2.00;0.80;;;7.80;99.90;;;;;;4990419;28;20566;-67
2023/03/13 07:48:43;;;;;;;1.40;0.90;;;7.80;99.90;;;;;;4968500;28;20476;-66
2023/03/13 07:51:14;;;;;;;1.10;1.00;;;7.80;99.90;;;;;;4987896;28;20866;-68
2023/03/13 07:53:43;;;;;;;1.75;0.80;;;7.80;99.90;;;;;;4978817;28;20544;-67
2023/03/13 07:56:13;;;;;;;1.63;1.27;;;7.80;99.90;;;;;;4978204;28;20221;-68
2023/03/13 07:58:43;;;;;;;1.00;0.90;;;7.80;99.90;;;;;;4976436;28;20456;-68
2023/03/13 08:01:14;;;;;;;2.20;1.30;;;7.80;99.90;;;;;;4981840;28;20195;-67
2023/03/13 08:03:44;;;;;;;2.55;1.48;;;7.80;99.90;;;;;;5000887;28;20285;-67
2023/03/13 08:06:15;;;;;;;1.13;0.83;;;7.80;99.90;;;;;;4985201;28;20697;-68
2023/03/13 08:08:44;;;;;;;1.03;0.93;;;7.80;99.90;;;;;;4984014;28;20467;-67
2023/03/13 08:11:15;;;;;;;1.30;0.90;;;7.80;99.90;;;;;;5001490;28;20650;-67
2023/03/13 08:13:44;;;;;;;1.30;0.90;;;7.90;99.90;;;;;;4984752;28;20433;-66
2023/03/13 08:16:15;;;;;;;3.47;0.93;;;7.90;99.90;;;;;;5000154;28;20552;-68
2023/03/13 08:18:46;;;;;;;1.67;1.13;;;7.90;99.90;;;;;;4989809;28;21027;-68
2023/03/13 08:21:16;;;;;;;3.00;1.57;;;7.90;99.90;;;;;;4998157;28;20940;-66
2023/03/13 08:23:45;;;;;;;1.50;0.90;;;7.90;99.90;;;;;;4982718;28;20459;-68
2023/03/13 08:26:16;;;;;;;2.33;1.00;;;7.90;99.90;;;;;;4997339;28;20559;-67
2023/03/13 08:28:46;;;;;;;1.40;1.07;;;7.90;99.90;;;;;;4986461;28;20598;-67
2023/03/13 08:31:18;;;;;;;2.93;0.93;;;7.90;99.90;;;;;;4988603;28;20452;-67
2023/03/13 08:33:48;;;;;;;1.42;1.33;;;7.90;99.90;;;;;;4988322;28;20443;-67
2023/03/13 08:36:19;;;;;;;2.10;0.90;;;7.90;99.90;;;;;;4971798;28;20616;-67
2023/03/13 08:38:48;;;;;;;1.10;1.00;;;7.90;99.90;;;;;;4998403;28;20527;-68
2023/03/13 08:41:18;;;;;;;2.60;1.30;;;7.90;99.90;;;;;;5000361;28;20491;-68
2023/03/13 08:43:47;;;;;;;1.00;0.90;;;7.90;99.90;;;;;;5012239;28;20440;-66
2023/03/13 08:46:17;;;;;;;1.80;1.03;;;7.90;99.90;;;;;;4995127;28;20487;-69
2023/03/13 08:48:50;;;;;;;1.50;1.00;;;7.90;99.90;;;;;;4986247;28;20565;-69
2023/03/13 08:51:19;;;;;;;1.80;0.90;;;7.90;99.90;;;;;;5004660;28;20449;-66
2023/03/13 08:53:48;;;;;;;1.70;1.30;;;7.90;99.90;;;;;;5001025;28;20937;-66
2023/03/13 08:56:19;;;;;;;2.47;1.20;;;7.90;99.90;;;;;;5003258;28;21358;-66
2023/03/13 08:58:49;;;;;;;1.60;1.10;;;7.90;99.90;;;;;;4999837;28;20466;-67
2023/03/13 09:01:20;;;;;;;1.07;0.83;;;7.90;99.90;;;;;;4977585;28;20197;-67
2023/03/13 09:03:50;;;;;;;2.70;1.17;;;7.90;99.90;;;;;;5003776;28;21225;-67
2023/03/13 09:06:19;;;;;;;2.17;1.03;;;7.90;99.90;;;;;;5004324;28;20627;-67
2023/03/13 09:08:48;;;;;;;1.20;0.90;;;7.90;99.90;;;;;;4986301;28;20953;-67
2023/03/13 09:11:18;;;;;;;1.10;0.80;;;7.90;99.90;;;;;;4987731;28;20439;-69
2023/03/13 09:13:49;;;;;;;1.97;1.60;;;8.00;99.90;;;;;;4999952;28;20467;-68
2023/03/13 09:16:20;;;;;;;1.27;0.97;;;8.00;99.90;;;;;;4999002;28;20455;-66
2023/03/13 09:18:50;;;;;;;2.47;0.80;;;8.00;99.90;;;;;;4982068;28;20468;-68
2023/03/13 09:21:20;;;;;;;2.33;1.30;;;8.00;99.90;;;;;;4988851;28;20495;-68
2023/03/13 09:23:49;;;;;;;0.80;0.70;;;8.00;99.90;;;;;;4998635;28;20542;-67
2023/03/13 09:26:19;;;;;;;0.90;0.80;;;8.00;99.90;;;;;;5008227;28;20461;-66
2023/03/13 09:28:50;;;;;;;1.60;1.10;;;7.90;99.90;;;;;;4979923;28;20475;-67
2023/03/13 09:31:23;;;;;;;1.63;1.27;;;8.00;99.90;;;;;;5003083;28;20456;-67
2023/03/13 09:33:52;;;;;;;0.90;0.83;;;8.00;99.90;;;;;;4996249;28;20994;-66
2023/03/13 09:36:22;;;;;;;1.30;1.13;;;8.00;99.90;;;;;;5009090;28;20433;-67
2023/03/13 09:38:52;;;;;;;1.20;1.10;;;8.00;99.90;;;;;;4978035;28;20472;-67
2023/03/13 09:41:24;;;;;;;1.00;0.80;;;8.00;99.90;;;;;;4987498;28;20447;-67
2023/03/13 09:44:00;;;;;;;2.10;1.10;;;8.00;99.90;;;;;;4987848;28;20472;-66
2023/03/13 09:46:37;;;;;;;3.63;1.27;;;8.00;99.90;;;;;;5001357;28;20502;-67
2023/03/13 09:49:15;;;;;;;0.73;0.73;;;8.00;99.90;;;;;;4999753;28;20464;-66
2023/03/13 09:51:51;;;;;;;1.80;1.07;;;8.00;99.90;;;;;;5002612;28;20488;-67
2023/03/13 09:54:26;;;;;;;1.40;0.83;;;8.00;99.90;;;;;;4986273;28;20466;-66
2023/03/13 09:56:58;;;;;;;1.27;0.80;;;8.00;99.90;;;;;;5010043;28;20852;-67
2023/03/13 09:59:37;;;;;;;1.10;0.90;;;8.10;99.90;;;;;;4995429;28;21089;-68
2023/03/13 10:02:21;;;;;;;1.10;1.00;;;8.00;99.90;;;;;;4997351;28;20819;-68
2023/03/13 10:04:54;;;;;;;1.07;0.97;;;8.10;99.90;;;;;;4987404;28;20567;-66
2023/03/13 10:07:23;;;;;;;1.13;0.90;;;8.10;99.90;;;;;;4986406;28;20484;-67
2023/03/13 10:09:52;;;;;;;1.17;0.90;;;8.10;99.90;;;;;;4979802;28;21082;-66
2023/03/13 10:12:24;;;;;;;2.40;0.93;;;8.10;99.90;;;;;;4986177;28;20532;-66
2023/03/13 10:15:03;;;;;;;2.40;1.23;;;8.20;99.90;;;;;;5001002;28;20770;-67
2023/03/13 10:17:36;;;;;;;1.90;1.40;;;8.30;99.90;;;;;;4985870;28;20869;-65
2023/03/13 10:20:17;;;;;;;1.43;1.10;;;8.40;99.90;;;;;;4980298;28;20477;-66
2023/03/13 10:22:51;;;;;;;1.73;1.20;;;8.60;99.90;;;;;;4987148;28;20451;-66
2023/03/13 10:25:28;;;;;;;2.03;1.37;;;8.70;99.90;;;;;;4998233;28;20948;-66
2023/03/13 10:27:57;;;;;;;2.80;1.40;;;8.80;99.90;;;;;;5000388;28;20460;-65
2023/03/13 10:30:28;;;;;;;2.40;1.13;;;8.90;99.90;;;;;;4985005;28;20507;-65
2023/03/13 10:33:19;;;;;;;1.20;1.00;;;8.90;99.90;;;;;;4986533;28;20445;-65
2023/03/13 10:36:05;;;;;;;1.47;1.10;;;9.00;99.90;;;;;;4986033;28;20535;-67
2023/03/13 10:38:49;;;;;;;3.30;1.40;;;9.00;99.90;;;;;;4997234;28;20616;-67
2023/03/13 10:41:27;;;;;;;1.37;1.27;;;9.10;99.90;;;;;;4986174;28;20528;-66
2023/03/13 10:44:00;;;;;;;1.20;1.03;;;9.20;99.90;;;;;;4996751;28;20997;-65
2023/03/13 10:46:31;;;;;;;2.33;0.80;;;9.30;99.90;;;;;;4991588;28;20473;-66
2023/03/13 10:49:04;;;;;;;1.93;1.17;;;9.30;99.90;;;;;;5001890;28;20448;-65
2023/03/13 10:51:38;;;;;;;1.87;0.80;;;9.30;99.90;;;;;;5001449;28;20494;-66
2023/03/13 10:54:15;;;;;;;1.20;0.93;;;9.30;99.90;;;;;;4981476;28;20480;-67
2023/03/13 10:56:44;;;;;;;4.23;1.13;;;9.40;99.90;;;;;;4984547;28;20850;-66
2023/03/13 10:59:23;;;;;;;1.33;1.00;;;9.40;99.90;;;;;;4981556;28;20432;-66
2023/03/13 11:01:53;;;;;;;1.00;0.77;;;9.50;99.90;;;;;;4981338;28;20426;-66
2023/03/13 11:04:33;;;;;;;0.93;0.90;;;9.50;99.90;;;;;;4981802;28;20441;-66
2023/03/13 11:07:06;;;;;;;2.57;1.27;;;9.60;99.90;;;;;;4977499;28;20554;-65
2023/03/13 11:09:34;;;;;;;1.00;0.60;;;9.60;99.90;;;;;;4989685;28;20460;-65
2023/03/13 11:12:06;;;;;;;0.80;0.80;;;9.60;99.90;;;;;;4994861;28;20480;-65
2023/03/13 11:14:36;;;;;;;1.10;0.70;;;9.60;99.90;;;;;;4995751;28;20500;-66
2023/03/13 11:17:13;;;;;;;1.03;0.83;;;9.60;99.90;;;;;;4978683;28;20464;-66
2023/03/13 11:19:54;;;;;;;1.40;0.70;;;9.70;99.90;;;;;;4985653;28;20481;-67
2023/03/13 11:22:31;;;;;;;1.77;1.03;;;9.70;99.90;;;;;;5001872;28;20444;-68
2023/03/13 11:25:12;;;;;;;1.20;0.70;;;9.70;99.90;;;;;;5000266;28;20464;-66
2023/03/13 11:27:48;;;;;;;0.80;0.60;;;9.80;99.90;;;;;;4981241;28;20467;-64
2023/03/13 11:30:24;;;;;;;1.00;0.60;;;9.80;99.90;;;;;;5001395;28;20530;-66
2023/03/13 11:32:56;;;;;;;1.83;0.80;;;9.80;99.90;;;;;;5002904;28;20992;-66
2023/03/13 11:35:40;;;;;;;0.93;0.67;;;9.80;99.90;;;;;;5000867;28;20991;-66
2023/03/13 11:38:18;;;;;;;1.57;1.00;;;9.80;99.90;;;;;;5003132;28;20467;-65
2023/03/13 11:40:56;;;;;;;2.30;0.63;;;9.80;99.90;;;;;;4981793;28;20452;-65
2023/03/13 11:43:44;;;;;;;0.60;0.50;;;9.90;99.90;;;;;;5001596;28;20435;-65
2023/03/13 11:46:23;;;;;;;3.90;0.80;;;9.90;99.90;;;;;;4981555;28;20459;-66
2023/03/13 11:49:21;;;;;;;0.77;0.70;;;9.90;99.90;;;;;;4974223;28;20481;-64
2023/03/13 11:52:01;;;;;;;1.00;0.80;;;9.90;99.90;;;;;;4984690;28;20485;-67
2023/03/13 11:54:51;;;;;;;0.80;0.70;;;10.00;99.90;;;;;;4988519;28;20477;-65
2023/03/13 11:57:28;;;;;;;1.20;1.00;;;10.00;99.90;;;;;;4997714;28;20870;-67
2023/03/13 12:00:17;;;;;;;1.00;0.80;;;10.00;99.90;;;;;;4982366;28;20658;-65
2023/03/13 12:02:51;;;;;;;1.13;0.90;;;10.00;99.90;;;;;;4992089;28;20539;-67
2023/03/13 12:05:23;;;;;;;1.30;0.80;;;10.00;99.90;;;;;;5000524;28;20483;-67
2023/03/13 12:08:00;;;;;;;1.17;0.50;;;10.00;99.90;;;;;;4997395;28;20483;-65
2023/03/13 12:10:38;;;;;;;1.10;0.70;;;10.00;99.90;;;;;;5000200;28;21055;-67
2023/03/13 12:13:14;;;;;;;1.00;0.53;;;10.00;99.90;;;;;;4987373;28;20537;-67
2023/03/13 12:15:47;;;;;;;1.07;0.97;;;10.00;99.90;;;;;;4986594;28;20849;-65
2023/03/13 12:18:19;;;;;;;1.20;0.80;;;10.10;99.90;;;;;;4987445;28;20484;-66
2023/03/13 12:20:56;;;;;;;1.67;0.93;;;10.10;99.90;;;;;;4989199;28;20535;-67
2023/03/13 12:23:36;;;;;;;2.20;0.90;;;10.10;99.90;;;;;;4984049;28;20451;-65
2023/03/13 12:26:07;;;;;;;1.03;0.70;;;10.10;99.90;;;;;;4982555;28;20874;-66
2023/03/13 12:28:41;;;;;;;1.00;0.87;;;10.10;99.90;;;;;;4998266;28;20481;-65
2023/03/13 12:31:18;;;;;;;0.70;0.63;;;10.10;99.90;;;;;;4986466;28;21091;-66
2023/03/13 12:33:54;;;;;;;2.30;1.00;;;10.10;99.90;;;;;;5001784;28;20472;-68
2023/03/13 12:36:28;;;;;;;1.10;1.00;;;10.10;99.90;;;;;;5003829;28;20447;-67
2023/03/13 12:39:11;;;;;;;1.10;1.00;;;10.10;99.90;;;;;;4994491;28;20507;-67
2023/03/13 12:41:43;;;;;;;1.10;0.90;;;10.20;99.90;;;;;;5002924;28;20493;-66
2023/03/13 12:44:18;;;;;;;1.30;1.10;;;10.20;99.90;;;;;;4987962;28;20970;-67
2023/03/13 12:46:52;;;;;;;3.37;1.00;;;10.20;99.90;;;;;;5002151;28;20440;-65
2023/03/13 12:49:50;;;;;;;1.53;1.43;;;10.30;99.90;;;;;;4998606;28;20477;-67
2023/03/13 12:52:41;;;;;;;4.53;0.93;;;10.30;99.90;;;;;;5000194;28;20456;-66
2023/03/13 12:55:32;;;;;;;1.43;1.07;;;10.30;99.90;;;;;;4985912;28;20583;-65
2023/03/13 12:58:15;;;;;;;1.10;1.00;;;10.30;99.90;;;;;;5001105;28;20450;-65
2023/03/13 13:00:46;;;;;;;2.03;1.57;;;10.30;99.90;;;;;;4985534;28;20484;-67
2023/03/13 13:03:29;;;;;;;1.00;0.87;;;10.30;99.90;;;;;;4988489;28;20570;-65
2023/03/13 13:06:09;;;;;;;2.63;2.40;;;10.30;99.90;;;;;;4999520;28;20448;-65
2023/03/13 13:08:41;;;;;;;1.10;0.90;;;10.30;99.90;;;;;;5002418;28;20512;-65
2023/03/13 13:11:40;;;;;;;1.13;0.90;;;10.40;99.90;;;;;;4987362;28;20457;-66
2023/03/13 13:14:54;;;;;;;1.20;0.90;;;10.40;99.90;;;;;;4983119;28;21023;-65
2023/03/13 13:17:49;;;;;;;2.03;1.00;;;10.40;99.90;;;;;;4987643;28;20865;-66
2023/03/13 13:20:47;;;;;;;2.03;0.80;;;10.40;99.90;;;;;;4984558;28;20489;-67
2023/03/13 13:23:39;;;;;;;1.10;0.67;;;10.40;99.90;;;;;;4983539;28;21433;-66
2023/03/13 13:26:47;;;;;;;1.27;0.77;;;10.40;99.90;;;;;;4999991;28;20450;-66
2023/03/13 13:29:55;;;;;;;0.93;0.73;;;10.50;99.90;;;;;;4981706;28;20466;-66
2023/03/13 13:32:39;;;;;;;1.97;1.10;;;10.50;99.90;;;;;;4987780;28;20533;-66
2023/03/13 13:35:35;;;;;;;1.70;1.17;;;10.50;99.90;;;;;;4980658;28;20480;-67